Itaiopolis, Brazil
Current Conditions -  °F | °C
As of 10:00 AM on Friday 31 Oct 2014 (Local Time) from SBJV Reporting Station
Broken Clouds Broken Clouds  
Wind Chill: 77°   Ceiling: 7000
Heat Index: 78°   Visibility: 6mi
Dew Point: 72°   Wind: 8mph
Humidity: 83%   Direction: 100°E
Pressure: 29.91"   Gusts: NA
Location:  26.34°S, 49.91°W
Report Text: SBJV 311200Z 10007KT 9999 SCT018 BKN070 25/22 Q1013
Loading
Personal Weather Stations






























Interactive Weather Map
Tropical Storm Tracking
New forecast layout! Learn more

10-Day Weather Forecast

Advertisements
Track Severe Weather on mobile